sensor_id;sensor_type;location;lat;lon;timestamp;temperature;humidity
8172;DHT22;4127;47.908;10.850;2023-06-24T00:01:03;15.40;99.90
8172;DHT22;4127;47.908;10.850;2023-06-24T00:03:30;15.40;99.90
8172;DHT22;4127;47.908;10.850;2023-06-24T00:05:58;15.50;99.90
8172;DHT22;4127;47.908;10.850;2023-06-24T00:08:29;15.70;99.90
8172;DHT22;4127;47.908;10.850;2023-06-24T00:11:02;15.60;99.90
8172;DHT22;4127;47.908;10.850;2023-06-24T00:13:29;15.60;99.90
8172;DHT22;4127;47.908;10.850;2023-06-24T00:15:56;15.70;99.90
8172;DHT22;4127;47.908;10.850;2023-06-24T00:18:23;15.70;99.90
8172;DHT22;4127;47.908;10.850;2023-06-24T00:20:51;15.60;99.90
8172;DHT22;4127;47.908;10.850;2023-06-24T00:23:22;15.60;99.90
8172;DHT22;4127;47.908;10.850;2023-06-24T00:25:52;15.50;99.90
8172;DHT22;4127;47.908;10.850;2023-06-24T00:28:19;15.60;99.90
8172;DHT22;4127;47.908;10.850;2023-06-24T00:30:49;15.40;99.90
8172;DHT22;4127;47.908;10.850;2023-06-24T00:33:16;15.30;99.90
8172;DHT22;4127;47.908;10.850;2023-06-24T00:35:47;15.20;99.90
8172;DHT22;4127;47.908;10.850;2023-06-24T00:38:13;15.10;99.90
8172;DHT22;4127;47.908;10.850;2023-06-24T00:40:41;15.00;99.90
8172;DHT22;4127;47.908;10.850;2023-06-24T00:43:08;14.90;99.90
8172;DHT22;4127;47.908;10.850;2023-06-24T00:45:35;14.90;99.90
8172;DHT22;4127;47.908;10.850;2023-06-24T00:48:02;14.80;99.90
8172;DHT22;4127;47.908;10.850;2023-06-24T00:50:30;14.70;99.90
8172;DHT22;4127;47.908;10.850;2023-06-24T00:52:56;14.70;99.90
8172;DHT22;4127;47.908;10.850;2023-06-24T00:55:23;14.70;99.90
8172;DHT22;4127;47.908;10.850;2023-06-24T00:57:51;14.60;99.90
8172;DHT22;4127;47.908;10.850;2023-06-24T01:00:20;14.60;99.90
8172;DHT22;4127;47.908;10.850;2023-06-24T01:02:49;14.70;99.90
8172;DHT22;4127;47.908;10.850;2023-06-24T01:05:16;14.70;99.90
8172;DHT22;4127;47.908;10.850;2023-06-24T01:07:43;14.70;99.90
8172;DHT22;4127;47.908;10.850;2023-06-24T01:10:10;14.70;99.90
8172;DHT22;4127;47.908;10.850;2023-06-24T01:12:40;14.70;99.90
8172;DHT22;4127;47.908;10.850;2023-06-24T01:15:07;14.80;99.90
8172;DHT22;4127;47.908;10.850;2023-06-24T01:17:40;14.70;99.90
8172;DHT22;4127;47.908;10.850;2023-06-24T01:20:15;14.70;99.90
8172;DHT22;4127;47.908;10.850;2023-06-24T01:36:34;14.80;99.90
8172;DHT22;4127;47.908;10.850;2023-06-24T01:39:05;14.90;99.90
8172;DHT22;4127;47.908;10.850;2023-06-24T01:41:42;15.00;99.90
8172;DHT22;4127;47.908;10.850;2023-06-24T01:44:13;14.90;99.90
8172;DHT22;4127;47.908;10.850;2023-06-24T01:46:41;14.90;99.90
8172;DHT22;4127;47.908;10.850;2023-06-24T01:49:11;14.90;99.90
8172;DHT22;4127;47.908;10.850;2023-06-24T01:51:40;14.80;99.90
8172;DHT22;4127;47.908;10.850;2023-06-24T01:54:13;14.80;99.90
8172;DHT22;4127;47.908;10.850;2023-06-24T01:56:43;14.90;99.90
8172;DHT22;4127;47.908;10.850;2023-06-24T01:59:10;14.90;99.90
8172;DHT22;4127;47.908;10.850;2023-06-24T02:01:39;14.90;99.90
8172;DHT22;4127;47.908;10.850;2023-06-24T02:04:08;14.90;99.90
8172;DHT22;4127;47.908;10.850;2023-06-24T02:06:37;14.90;99.90
8172;DHT22;4127;47.908;10.850;2023-06-24T02:09:05;14.90;99.90
8172;DHT22;4127;47.908;10.850;2023-06-24T02:11:33;14.90;99.90
8172;DHT22;4127;47.908;10.850;2023-06-24T02:14:03;15.00;99.90
8172;DHT22;4127;47.908;10.850;2023-06-24T02:16:33;15.00;99.90
8172;DHT22;4127;47.908;10.850;2023-06-24T02:19:02;14.90;99.90
8172;DHT22;4127;47.908;10.850;2023-06-24T02:21:31;15.00;99.90
8172;DHT22;4127;47.908;10.850;2023-06-24T02:23:58;14.80;99.90
8172;DHT22;4127;47.908;10.850;2023-06-24T02:26:25;15.00;99.90
8172;DHT22;4127;47.908;10.850;2023-06-24T02:28:52;15.10;99.90
8172;DHT22;4127;47.908;10.850;2023-06-24T02:31:20;15.20;99.90
8172;DHT22;4127;47.908;10.850;2023-06-24T02:33:47;15.20;99.90
8172;DHT22;4127;47.908;10.850;2023-06-24T02:36:14;15.20;99.90
8172;DHT22;4127;47.908;10.850;2023-06-24T02:38:40;15.20;99.90
8172;DHT22;4127;47.908;10.850;2023-06-24T02:41:07;15.20;99.90
8172;DHT22;4127;47.908;10.850;2023-06-24T02:43:34;15.20;99.90
8172;DHT22;4127;47.908;10.850;2023-06-24T02:46:03;15.00;99.90
8172;DHT22;4127;47.908;10.850;2023-06-24T02:48:32;14.90;99.90
8172;DHT22;4127;47.908;10.850;2023-06-24T02:51:00;14.80;99.90
8172;DHT22;4127;47.908;10.850;2023-06-24T02:53:28;14.60;99.90
8172;DHT22;4127;47.908;10.850;2023-06-24T02:55:56;14.70;99.90
8172;DHT22;4127;47.908;10.850;2023-06-24T02:58:24;14.60;99.90
8172;DHT22;4127;47.908;10.850;2023-06-24T03:01:01;14.70;99.90
8172;DHT22;4127;47.908;10.850;2023-06-24T03:03:30;14.60;99.90
8172;DHT22;4127;47.908;10.850;2023-06-24T03:05:58;14.60;99.90
8172;DHT22;4127;47.908;10.850;2023-06-24T03:08:27;14.50;99.90
8172;DHT22;4127;47.908;10.850;2023-06-24T03:10:57;14.50;99.90
8172;DHT22;4127;47.908;10.850;2023-06-24T03:13:25;14.50;99.90
8172;DHT22;4127;47.908;10.850;2023-06-24T03:15:52;14.50;99.90
8172;DHT22;4127;47.908;10.850;2023-06-24T03:18:20;14.30;99.90
8172;DHT22;4127;47.908;10.850;2023-06-24T03:20:46;14.20;99.90
8172;DHT22;4127;47.908;10.850;2023-06-24T03:23:14;14.10;99.90
8172;DHT22;4127;47.908;10.850;2023-06-24T03:25:41;14.10;99.90
8172;DHT22;4127;47.908;10.850;2023-06-24T03:28:08;14.10;99.90
8172;DHT22;4127;47.908;10.850;2023-06-24T03:30:34;14.10;99.90
8172;DHT22;4127;47.908;10.850;2023-06-24T03:33:02;14.20;99.90
8172;DHT22;4127;47.908;10.850;2023-06-24T03:35:29;14.10;99.90
8172;DHT22;4127;47.908;10.850;2023-06-24T03:37:59;14.10;99.90
8172;DHT22;4127;47.908;10.850;2023-06-24T03:40:26;14.10;99.90
8172;DHT22;4127;47.908;10.850;2023-06-24T03:42:52;14.10;99.90
8172;DHT22;4127;47.908;10.850;2023-06-24T03:45:19;14.10;99.90
8172;DHT22;4127;47.908;10.850;2023-06-24T03:47:46;14.10;99.90
8172;DHT22;4127;47.908;10.850;2023-06-24T03:50:13;14.20;99.90
8172;DHT22;4127;47.908;10.850;2023-06-24T03:52:39;14.10;99.90
8172;DHT22;4127;47.908;10.850;2023-06-24T03:55:06;14.10;99.90
8172;DHT22;4127;47.908;10.850;2023-06-24T03:57:33;14.10;99.90
8172;DHT22;4127;47.908;10.850;2023-06-24T04:00:00;14.00;99.90
8172;DHT22;4127;47.908;10.850;2023-06-24T04:02:27;14.10;99.90
8172;DHT22;4127;47.908;10.850;2023-06-24T04:04:56;14.00;99.90
8172;DHT22;4127;47.908;10.850;2023-06-24T04:07:23;14.10;99.90
8172;DHT22;4127;47.908;10.850;2023-06-24T04:09:55;14.10;99.90
8172;DHT22;4127;47.908;10.850;2023-06-24T04:12:23;14.20;99.90
8172;DHT22;4127;47.908;10.850;2023-06-24T04:14:50;14.20;99.90
8172;DHT22;4127;47.908;10.850;2023-06-24T04:17:17;14.20;99.90
8172;DHT22;4127;47.908;10.850;2023-06-24T04:19:44;14.30;99.90
8172;DHT22;4127;47.908;10.850;2023-06-24T04:22:11;14.30;99.90
8172;DHT22;4127;47.908;10.850;2023-06-24T04:24:38;14.30;99.90
8172;DHT22;4127;47.908;10.850;2023-06-24T04:27:07;14.30;99.90
8172;DHT22;4127;47.908;10.850;2023-06-24T04:29:34;14.40;99.90
8172;DHT22;4127;47.908;10.850;2023-06-24T04:32:01;14.40;99.90
8172;DHT22;4127;47.908;10.850;2023-06-24T04:34:28;14.40;99.90
8172;DHT22;4127;47.908;10.850;2023-06-24T04:36:55;14.50;99.90
8172;DHT22;4127;47.908;10.850;2023-06-24T04:39:22;14.50;99.90
8172;DHT22;4127;47.908;10.850;2023-06-24T04:41:48;14.50;99.90
8172;DHT22;4127;47.908;10.850;2023-06-24T04:44:15;14.50;99.90
8172;DHT22;4127;47.908;10.850;2023-06-24T04:46:42;14.60;99.90
8172;DHT22;4127;47.908;10.850;2023-06-24T04:49:09;14.50;99.90
8172;DHT22;4127;47.908;10.850;2023-06-24T04:51:36;14.50;99.90
8172;DHT22;4127;47.908;10.850;2023-06-24T04:54:03;14.50;99.90
8172;DHT22;4127;47.908;10.850;2023-06-24T04:56:30;14.50;99.90
8172;DHT22;4127;47.908;10.850;2023-06-24T04:58:57;14.60;99.90
8172;DHT22;4127;47.908;10.850;2023-06-24T05:01:24;14.60;99.90
8172;DHT22;4127;47.908;10.850;2023-06-24T05:03:51;14.60;99.90
8172;DHT22;4127;47.908;10.850;2023-06-24T05:06:17;14.60;99.90
8172;DHT22;4127;47.908;10.850;2023-06-24T05:08:44;14.70;99.90
8172;DHT22;4127;47.908;10.850;2023-06-24T05:11:11;14.70;99.90
8172;DHT22;4127;47.908;10.850;2023-06-24T05:13:38;14.80;99.90
8172;DHT22;4127;47.908;10.850;2023-06-24T05:16:05;14.80;99.90
8172;DHT22;4127;47.908;10.850;2023-06-24T05:18:31;14.80;99.90
8172;DHT22;4127;47.908;10.850;2023-06-24T05:20:58;14.90;99.90
8172;DHT22;4127;47.908;10.850;2023-06-24T05:23:25;15.00;99.90
8172;DHT22;4127;47.908;10.850;2023-06-24T05:25:52;15.10;99.90
8172;DHT22;4127;47.908;10.850;2023-06-24T05:28:18;15.10;99.90
8172;DHT22;4127;47.908;10.850;2023-06-24T05:30:46;15.20;99.90
8172;DHT22;4127;47.908;10.850;2023-06-24T05:33:13;15.20;99.90
8172;DHT22;4127;47.908;10.850;2023-06-24T05:35:42;15.30;99.90
8172;DHT22;4127;47.908;10.850;2023-06-24T05:38:09;15.30;99.90
8172;DHT22;4127;47.908;10.850;2023-06-24T05:40:36;15.40;99.90
8172;DHT22;4127;47.908;10.850;2023-06-24T05:43:02;15.40;99.90
8172;DHT22;4127;47.908;10.850;2023-06-24T05:45:29;15.40;99.90
8172;DHT22;4127;47.908;10.850;2023-06-24T05:47:56;15.50;99.90
8172;DHT22;4127;47.908;10.850;2023-06-24T05:50:23;15.60;99.90
8172;DHT22;4127;47.908;10.850;2023-06-24T05:52:50;15.70;99.90
8172;DHT22;4127;47.908;10.850;2023-06-24T05:55:16;15.80;99.90
8172;DHT22;4127;47.908;10.850;2023-06-24T05:57:43;15.80;99.90
8172;DHT22;4127;47.908;10.850;2023-06-24T06:00:10;15.90;99.90
8172;DHT22;4127;47.908;10.850;2023-06-24T06:02:37;16.10;99.90
8172;DHT22;4127;47.908;10.850;2023-06-24T06:05:04;16.20;99.90
8172;DHT22;4127;47.908;10.850;2023-06-24T06:07:31;16.30;99.90
8172;DHT22;4127;47.908;10.850;2023-06-24T06:09:58;16.30;99.90
8172;DHT22;4127;47.908;10.850;2023-06-24T06:12:25;16.40;99.90
8172;DHT22;4127;47.908;10.850;2023-06-24T06:14:52;16.60;99.90
8172;DHT22;4127;47.908;10.850;2023-06-24T06:17:18;16.60;99.90
8172;DHT22;4127;47.908;10.850;2023-06-24T06:19:45;16.70;99.90
8172;DHT22;4127;47.908;10.850;2023-06-24T06:22:15;16.80;99.90
8172;DHT22;4127;47.908;10.850;2023-06-24T06:24:42;17.00;99.90
8172;DHT22;4127;47.908;10.850;2023-06-24T06:27:10;17.10;99.90
8172;DHT22;4127;47.908;10.850;2023-06-24T06:29:38;17.30;99.90
8172;DHT22;4127;47.908;10.850;2023-06-24T06:32:04;17.30;99.90
8172;DHT22;4127;47.908;10.850;2023-06-24T06:34:31;17.30;99.90
8172;DHT22;4127;47.908;10.850;2023-06-24T06:36:58;17.40;99.90
8172;DHT22;4127;47.908;10.850;2023-06-24T06:39:25;17.50;99.90
8172;DHT22;4127;47.908;10.850;2023-06-24T06:41:52;17.60;99.90
8172;DHT22;4127;47.908;10.850;2023-06-24T06:44:19;17.70;99.90
8172;DHT22;4127;47.908;10.850;2023-06-24T06:46:45;17.90;99.90
8172;DHT22;4127;47.908;10.850;2023-06-24T06:49:12;18.00;99.90
8172;DHT22;4127;47.908;10.850;2023-06-24T06:51:39;17.90;99.90
8172;DHT22;4127;47.908;10.850;2023-06-24T06:54:06;18.00;99.90
8172;DHT22;4127;47.908;10.850;2023-06-24T06:56:32;18.10;99.90
8172;DHT22;4127;47.908;10.850;2023-06-24T06:59:02;18.20;99.90
8172;DHT22;4127;47.908;10.850;2023-06-24T07:01:28;18.30;99.90
8172;DHT22;4127;47.908;10.850;2023-06-24T07:03:55;18.30;99.90
8172;DHT22;4127;47.908;10.850;2023-06-24T07:06:22;18.20;99.90
8172;DHT22;4127;47.908;10.850;2023-06-24T07:08:49;18.20;99.90
8172;DHT22;4127;47.908;10.850;2023-06-24T07:11:16;18.30;99.90
8172;DHT22;4127;47.908;10.850;2023-06-24T07:13:43;18.40;99.90
8172;DHT22;4127;47.908;10.850;2023-06-24T07:16:11;18.40;99.90
8172;DHT22;4127;47.908;10.850;2023-06-24T07:18:38;18.50;99.90
8172;DHT22;4127;47.908;10.850;2023-06-24T07:21:04;18.70;99.90
8172;DHT22;4127;47.908;10.850;2023-06-24T07:23:31;18.90;99.90
8172;DHT22;4127;47.908;10.850;2023-06-24T07:25:58;19.00;99.90
8172;DHT22;4127;47.908;10.850;2023-06-24T07:28:29;19.10;99.90
8172;DHT22;4127;47.908;10.850;2023-06-24T07:30:56;19.20;99.90
8172;DHT22;4127;47.908;10.850;2023-06-24T07:33:23;19.40;99.90
8172;DHT22;4127;47.908;10.850;2023-06-24T07:35:50;19.50;99.90
8172;DHT22;4127;47.908;10.850;2023-06-24T07:38:16;19.40;99.90
8172;DHT22;4127;47.908;10.850;2023-06-24T07:40:43;19.20;99.90
8172;DHT22;4127;47.908;10.850;2023-06-24T07:43:10;19.40;99.90
8172;DHT22;4127;47.908;10.850;2023-06-24T07:45:37;19.70;99.90
8172;DHT22;4127;47.908;10.850;2023-06-24T07:48:04;20.00;99.90
8172;DHT22;4127;47.908;10.850;2023-06-24T07:50:31;19.90;99.90
8172;DHT22;4127;47.908;10.850;2023-06-24T07:52:58;20.10;99.70
8172;DHT22;4127;47.908;10.850;2023-06-24T07:55:25;20.30;98.70
8172;DHT22;4127;47.908;10.850;2023-06-24T07:57:52;20.40;99.60
8172;DHT22;4127;47.908;10.850;2023-06-24T08:00:19;20.40;98.10
8172;DHT22;4127;47.908;10.850;2023-06-24T08:02:46;20.60;96.80
8172;DHT22;4127;47.908;10.850;2023-06-24T08:05:13;20.60;96.20
8172;DHT22;4127;47.908;10.850;2023-06-24T08:07:40;20.60;95.90
8172;DHT22;4127;47.908;10.850;2023-06-24T08:10:07;20.70;96.40
8172;DHT22;4127;47.908;10.850;2023-06-24T08:12:34;21.10;96.40
8172;DHT22;4127;47.908;10.850;2023-06-24T08:15:01;20.80;96.00
8172;DHT22;4127;47.908;10.850;2023-06-24T08:17:27;20.40;97.60
8172;DHT22;4127;47.908;10.850;2023-06-24T08:19:54;20.70;97.50
8172;DHT22;4127;47.908;10.850;2023-06-24T08:22:21;20.70;94.60
8172;DHT22;4127;47.908;10.850;2023-06-24T08:24:48;20.50;95.60
8172;DHT22;4127;47.908;10.850;2023-06-24T08:27:15;21.00;96.00
8172;DHT22;4127;47.908;10.850;2023-06-24T08:29:41;21.40;94.10
8172;DHT22;4127;47.908;10.850;2023-06-24T08:32:09;21.90;95.00
8172;DHT22;4127;47.908;10.850;2023-06-24T08:34:35;22.00;93.60
8172;DHT22;4127;47.908;10.850;2023-06-24T08:37:02;22.30;92.80
8172;DHT22;4127;47.908;10.850;2023-06-24T08:39:29;22.50;92.60
8172;DHT22;4127;47.908;10.850;2023-06-24T08:41:56;22.50;93.00
8172;DHT22;4127;47.908;10.850;2023-06-24T08:44:23;22.60;91.70
8172;DHT22;4127;47.908;10.850;2023-06-24T08:46:50;22.40;91.70
8172;DHT22;4127;47.908;10.850;2023-06-24T08:52:00;21.70;92.10
8172;DHT22;4127;47.908;10.850;2023-06-24T08:54:30;22.00;94.00
8172;DHT22;4127;47.908;10.850;2023-06-24T08:57:00;22.60;92.60
8172;DHT22;4127;47.908;10.850;2023-06-24T08:59:28;23.10;91.50
8172;DHT22;4127;47.908;10.850;2023-06-24T09:01:55;23.40;91.10
8172;DHT22;4127;47.908;10.850;2023-06-24T09:04:21;23.40;90.70
8172;DHT22;4127;47.908;10.850;2023-06-24T09:06:48;22.50;90.30
8172;DHT22;4127;47.908;10.850;2023-06-24T09:09:22;22.30;91.60
8172;DHT22;4127;47.908;10.850;2023-06-24T09:11:57;22.80;91.20
8172;DHT22;4127;47.908;10.850;2023-06-24T09:14:25;23.30;90.70
8172;DHT22;4127;47.908;10.850;2023-06-24T09:16:56;23.20;90.80
8172;DHT22;4127;47.908;10.850;2023-06-24T09:19:25;23.60;90.30
8172;DHT22;4127;47.908;10.850;2023-06-24T09:22:01;24.00;89.80
8172;DHT22;4127;47.908;10.850;2023-06-24T09:24:30;24.30;89.60
8172;DHT22;4127;47.908;10.850;2023-06-24T09:26:57;23.70;89.60
8172;DHT22;4127;47.908;10.850;2023-06-24T09:29:29;23.20;91.30
8172;DHT22;4127;47.908;10.850;2023-06-24T09:31:57;23.10;90.10
8172;DHT22;4127;47.908;10.850;2023-06-24T09:34:28;22.40;90.00
8172;DHT22;4127;47.908;10.850;2023-06-24T09:36:57;22.90;90.10
8172;DHT22;4127;47.908;10.850;2023-06-24T09:39:25;23.20;90.30
8172;DHT22;4127;47.908;10.850;2023-06-24T09:42:01;23.20;88.70
8172;DHT22;4127;47.908;10.850;2023-06-24T09:44:28;23.20;89.40
8172;DHT22;4127;47.908;10.850;2023-06-24T09:46:56;23.60;90.50
8172;DHT22;4127;47.908;10.850;2023-06-24T09:49:23;23.70;85.30
8172;DHT22;4127;47.908;10.850;2023-06-24T09:51:55;23.60;86.40
8172;DHT22;4127;47.908;10.850;2023-06-24T09:54:22;22.50;87.30
8172;DHT22;4127;47.908;10.850;2023-06-24T09:56:52;22.80;88.80
8172;DHT22;4127;47.908;10.850;2023-06-24T09:59:20;22.60;89.80
8172;DHT22;4127;47.908;10.850;2023-06-24T10:01:49;23.20;88.40
8172;DHT22;4127;47.908;10.850;2023-06-24T10:04:19;23.80;86.70
8172;DHT22;4127;47.908;10.850;2023-06-24T10:06:47;24.00;85.90
8172;DHT22;4127;47.908;10.850;2023-06-24T10:09:14;23.90;84.80
8172;DHT22;4127;47.908;10.850;2023-06-24T10:11:47;24.30;83.30
8172;DHT22;4127;47.908;10.850;2023-06-24T10:14:14;24.50;80.10
8172;DHT22;4127;47.908;10.850;2023-06-24T10:16:42;24.50;81.80
8172;DHT22;4127;47.908;10.850;2023-06-24T10:19:10;23.60;84.40
8172;DHT22;4127;47.908;10.850;2023-06-24T10:21:51;22.30;83.90
8172;DHT22;4127;47.908;10.850;2023-06-24T10:24:31;22.80;84.60
8172;DHT22;4127;47.908;10.850;2023-06-24T10:27:06;23.20;86.90
8172;DHT22;4127;47.908;10.850;2023-06-24T10:29:36;23.80;83.90
8172;DHT22;4127;47.908;10.850;2023-06-24T10:32:08;23.30;82.80
8172;DHT22;4127;47.908;10.850;2023-06-24T10:34:45;22.70;87.90
8172;DHT22;4127;47.908;10.850;2023-06-24T10:37:32;22.00;85.30
8172;DHT22;4127;47.908;10.850;2023-06-24T10:40:02;23.00;84.80
8172;DHT22;4127;47.908;10.850;2023-06-24T10:42:33;23.10;82.30
8172;DHT22;4127;47.908;10.850;2023-06-24T10:47:37;22.10;86.70
8172;DHT22;4127;47.908;10.850;2023-06-24T10:50:06;22.20;89.70
8172;DHT22;4127;47.908;10.850;2023-06-24T10:52:46;22.40;89.10
8172;DHT22;4127;47.908;10.850;2023-06-24T10:55:15;22.60;87.40
8172;DHT22;4127;47.908;10.850;2023-06-24T10:57:43;22.40;89.60
8172;DHT22;4127;47.908;10.850;2023-06-24T11:00:12;22.50;84.70
8172;DHT22;4127;47.908;10.850;2023-06-24T11:02:39;21.70;89.10
8172;DHT22;4127;47.908;10.850;2023-06-24T11:05:07;21.80;89.80
8172;DHT22;4127;47.908;10.850;2023-06-24T11:07:36;22.20;90.00
8172;DHT22;4127;47.908;10.850;2023-06-24T11:12:36;23.40;83.80
8172;DHT22;4127;47.908;10.850;2023-06-24T11:15:08;23.60;82.20
8172;DHT22;4127;47.908;10.850;2023-06-24T11:17:37;23.70;80.70
8172;DHT22;4127;47.908;10.850;2023-06-24T11:20:11;24.00;81.30
8172;DHT22;4127;47.908;10.850;2023-06-24T11:22:40;23.70;81.70
8172;DHT22;4127;47.908;10.850;2023-06-24T11:25:15;23.30;83.40
8172;DHT22;4127;47.908;10.850;2023-06-24T11:27:42;22.80;82.80
8172;DHT22;4127;47.908;10.850;2023-06-24T11:30:11;22.50;83.00
8172;DHT22;4127;47.908;10.850;2023-06-24T11:32:39;21.50;85.70
8172;DHT22;4127;47.908;10.850;2023-06-24T11:35:08;21.10;86.90
8172;DHT22;4127;47.908;10.850;2023-06-24T11:37:35;21.80;88.40
8172;DHT22;4127;47.908;10.850;2023-06-24T11:40:05;22.70;85.00
8172;DHT22;4127;47.908;10.850;2023-06-24T11:42:35;22.90;83.20
8172;DHT22;4127;47.908;10.850;2023-06-24T11:45:04;23.10;82.30
8172;DHT22;4127;47.908;10.850;2023-06-24T11:47:33;22.70;85.00
8172;DHT22;4127;47.908;10.850;2023-06-24T11:50:05;22.50;83.80
8172;DHT22;4127;47.908;10.850;2023-06-24T11:52:42;22.50;83.60
8172;DHT22;4127;47.908;10.850;2023-06-24T11:55:23;23.20;82.80
8172;DHT22;4127;47.908;10.850;2023-06-24T11:57:56;23.30;80.30
8172;DHT22;4127;47.908;10.850;2023-06-24T12:00:29;23.20;82.90
8172;DHT22;4127;47.908;10.850;2023-06-24T12:03:01;23.80;84.00
8172;DHT22;4127;47.908;10.850;2023-06-24T12:05:31;24.00;78.10
8172;DHT22;4127;47.908;10.850;2023-06-24T12:08:03;24.00;80.10
8172;DHT22;4127;47.908;10.850;2023-06-24T12:10:31;24.30;76.10
8172;DHT22;4127;47.908;10.850;2023-06-24T12:13:03;25.00;76.40
8172;DHT22;4127;47.908;10.850;2023-06-24T12:15:30;24.60;76.60
8172;DHT22;4127;47.908;10.850;2023-06-24T12:17:57;23.10;80.20
8172;DHT22;4127;47.908;10.850;2023-06-24T12:20:25;22.20;81.20
8172;DHT22;4127;47.908;10.850;2023-06-24T12:23:01;22.10;84.40
8172;DHT22;4127;47.908;10.850;2023-06-24T12:25:30;22.60;79.50
8172;DHT22;4127;47.908;10.850;2023-06-24T12:27:56;22.80;80.40
8172;DHT22;4127;47.908;10.850;2023-06-24T12:30:23;22.30;82.50
8172;DHT22;4127;47.908;10.850;2023-06-24T12:32:51;22.10;79.30
8172;DHT22;4127;47.908;10.850;2023-06-24T12:35:18;21.50;81.90
8172;DHT22;4127;47.908;10.850;2023-06-24T12:37:46;21.60;83.90
8172;DHT22;4127;47.908;10.850;2023-06-24T12:40:14;22.60;82.50
8172;DHT22;4127;47.908;10.850;2023-06-24T12:42:41;23.70;78.30
8172;DHT22;4127;47.908;10.850;2023-06-24T12:45:08;24.30;74.90
8172;DHT22;4127;47.908;10.850;2023-06-24T12:47:35;24.30;75.40
8172;DHT22;4127;47.908;10.850;2023-06-24T12:50:02;24.80;72.90
8172;DHT22;4127;47.908;10.850;2023-06-24T12:52:35;24.90;69.60
8172;DHT22;4127;47.908;10.850;2023-06-24T12:55:04;24.30;70.40
8172;DHT22;4127;47.908;10.850;2023-06-24T12:57:30;24.90;74.10
8172;DHT22;4127;47.908;10.850;2023-06-24T12:59:57;24.00;71.10
8172;DHT22;4127;47.908;10.850;2023-06-24T13:02:24;23.40;75.40
8172;DHT22;4127;47.908;10.850;2023-06-24T13:04:51;23.20;75.00
8172;DHT22;4127;47.908;10.850;2023-06-24T13:07:18;23.40;73.10
8172;DHT22;4127;47.908;10.850;2023-06-24T13:09:45;24.00;72.90
8172;DHT22;4127;47.908;10.850;2023-06-24T13:12:11;24.20;73.20
8172;DHT22;4127;47.908;10.850;2023-06-24T13:14:38;24.80;68.80
8172;DHT22;4127;47.908;10.850;2023-06-24T13:17:05;25.30;66.10
8172;DHT22;4127;47.908;10.850;2023-06-24T13:19:32;25.20;68.70
8172;DHT22;4127;47.908;10.850;2023-06-24T13:21:59;24.70;72.80
8172;DHT22;4127;47.908;10.850;2023-06-24T13:24:26;25.30;73.10
8172;DHT22;4127;47.908;10.850;2023-06-24T13:26:53;25.90;70.90
8172;DHT22;4127;47.908;10.850;2023-06-24T13:29:19;26.00;68.90
8172;DHT22;4127;47.908;10.850;2023-06-24T13:31:47;24.80;70.30
8172;DHT22;4127;47.908;10.850;2023-06-24T13:34:14;24.80;69.90
8172;DHT22;4127;47.908;10.850;2023-06-24T13:36:41;25.00;69.00
8172;DHT22;4127;47.908;10.850;2023-06-24T13:39:08;25.50;67.80
8172;DHT22;4127;47.908;10.850;2023-06-24T13:41:38;25.70;66.80
8172;DHT22;4127;47.908;10.850;2023-06-24T13:44:06;25.00;71.00
8172;DHT22;4127;47.908;10.850;2023-06-24T13:46:33;24.40;69.90
8172;DHT22;4127;47.908;10.850;2023-06-24T13:49:00;24.20;68.80
8172;DHT22;4127;47.908;10.850;2023-06-24T13:51:31;23.90;72.00
8172;DHT22;4127;47.908;10.850;2023-06-24T13:53:58;23.60;72.00
8172;DHT22;4127;47.908;10.850;2023-06-24T13:56:25;24.30;72.80
8172;DHT22;4127;47.908;10.850;2023-06-24T13:58:53;24.40;67.00
8172;DHT22;4127;47.908;10.850;2023-06-24T14:01:21;24.10;68.80
8172;DHT22;4127;47.908;10.850;2023-06-24T14:03:49;24.20;73.00
8172;DHT22;4127;47.908;10.850;2023-06-24T14:06:18;23.70;67.70
8172;DHT22;4127;47.908;10.850;2023-06-24T14:08:46;24.40;67.80
8172;DHT22;4127;47.908;10.850;2023-06-24T14:11:13;25.30;67.20
8172;DHT22;4127;47.908;10.850;2023-06-24T14:13:41;24.70;68.40
8172;DHT22;4127;47.908;10.850;2023-06-24T14:16:08;24.50;69.40
8172;DHT22;4127;47.908;10.850;2023-06-24T14:18:37;24.10;65.60
8172;DHT22;4127;47.908;10.850;2023-06-24T14:21:05;23.90;68.70
8172;DHT22;4127;47.908;10.850;2023-06-24T14:23:33;24.60;66.90
8172;DHT22;4127;47.908;10.850;2023-06-24T14:26:00;25.10;63.60
8172;DHT22;4127;47.908;10.850;2023-06-24T14:28:27;25.10;65.60
8172;DHT22;4127;47.908;10.850;2023-06-24T14:30:54;24.50;67.70
8172;DHT22;4127;47.908;10.850;2023-06-24T14:33:21;24.20;65.30
8172;DHT22;4127;47.908;10.850;2023-06-24T14:35:48;24.40;67.20
8172;DHT22;4127;47.908;10.850;2023-06-24T14:38:14;24.30;68.00
8172;DHT22;4127;47.908;10.850;2023-06-24T14:40:41;24.20;67.30
8172;DHT22;4127;47.908;10.850;2023-06-24T14:43:08;24.60;66.60
8172;DHT22;4127;47.908;10.850;2023-06-24T14:45:35;25.20;63.60
8172;DHT22;4127;47.908;10.850;2023-06-24T14:48:02;25.20;65.10
8172;DHT22;4127;47.908;10.850;2023-06-24T14:50:29;24.70;64.00
8172;DHT22;4127;47.908;10.850;2023-06-24T14:52:56;24.30;67.90
8172;DHT22;4127;47.908;10.850;2023-06-24T14:55:23;23.50;66.10
8172;DHT22;4127;47.908;10.850;2023-06-24T14:57:50;23.40;67.80
8172;DHT22;4127;47.908;10.850;2023-06-24T15:00:17;23.40;67.60
8172;DHT22;4127;47.908;10.850;2023-06-24T15:02:43;24.00;65.50
8172;DHT22;4127;47.908;10.850;2023-06-24T15:05:10;24.10;65.60
8172;DHT22;4127;47.908;10.850;2023-06-24T15:07:37;24.50;64.90
8172;DHT22;4127;47.908;10.850;2023-06-24T15:10:05;24.80;66.30
8172;DHT22;4127;47.908;10.850;2023-06-24T15:12:33;25.10;61.80
8172;DHT22;4127;47.908;10.850;2023-06-24T15:15:01;25.50;61.70
8172;DHT22;4127;47.908;10.850;2023-06-24T15:17:28;25.60;60.50
8172;DHT22;4127;47.908;10.850;2023-06-24T15:19:56;24.50;61.50
8172;DHT22;4127;47.908;10.850;2023-06-24T15:22:23;23.80;63.50
8172;DHT22;4127;47.908;10.850;2023-06-24T15:24:50;23.70;65.60
8172;DHT22;4127;47.908;10.850;2023-06-24T15:27:17;23.60;65.50
8172;DHT22;4127;47.908;10.850;2023-06-24T15:29:43;23.50;65.80
8172;DHT22;4127;47.908;10.850;2023-06-24T15:32:10;23.70;64.90
8172;DHT22;4127;47.908;10.850;2023-06-24T15:34:37;24.00;65.90
8172;DHT22;4127;47.908;10.850;2023-06-24T15:37:04;24.10;62.20
8172;DHT22;4127;47.908;10.850;2023-06-24T15:39:31;24.60;64.00
8172;DHT22;4127;47.908;10.850;2023-06-24T15:41:58;24.90;64.50
8172;DHT22;4127;47.908;10.850;2023-06-24T15:44:25;23.90;63.10
8172;DHT22;4127;47.908;10.850;2023-06-24T15:46:51;22.80;67.40
8172;DHT22;4127;47.908;10.850;2023-06-24T15:49:18;22.70;69.60
8172;DHT22;4127;47.908;10.850;2023-06-24T15:51:45;22.80;67.90
8172;DHT22;4127;47.908;10.850;2023-06-24T15:54:12;23.20;68.60
8172;DHT22;4127;47.908;10.850;2023-06-24T15:56:39;23.90;68.20
8172;DHT22;4127;47.908;10.850;2023-06-24T15:59:06;24.40;65.30
8172;DHT22;4127;47.908;10.850;2023-06-24T16:01:32;24.60;66.90
8172;DHT22;4127;47.908;10.850;2023-06-24T16:03:59;24.50;65.10
8172;DHT22;4127;47.908;10.850;2023-06-24T16:06:26;24.10;64.80
8172;DHT22;4127;47.908;10.850;2023-06-24T16:08:53;23.80;68.60
8172;DHT22;4127;47.908;10.850;2023-06-24T16:11:19;23.70;67.50